Time;durP1;ratioP1;P1;durP2;ratioP2;P2;SDS_P1;SDS_P2;PMS_P1;PMS_P2;Temp;Humidity;BMP_temperature;BMP_pressure;BME280_temperature;BME280_humidity;BME280_pressure;Samples;Min_cycle;Max_cycle;Signal;HPM_P1;HPM_P2
2023/03/15 00:00:24;;;;;;;18.27;9.90;;;;;;;;;;5069769;28;20430;-63
2023/03/15 00:02:50;;;;;;;17.20;10.20;;;;;;;;;;5069946;28;20036;-62
2023/03/15 00:05:16;;;;;;;21.35;9.35;;;;;;;;;;5068766;28;20488;-65
2023/03/15 00:07:42;;;;;;;19.48;9.73;;;;;;;;;;5069757;28;20035;-65
2023/03/15 00:10:08;;;;;;;16.95;9.80;;;;;;;;;;5052924;28;20042;-63
2023/03/15 00:12:34;;;;;;;18.02;9.65;;;;;;;;;;5069307;28;20017;-59
2023/03/15 00:15:00;;;;;;;18.95;9.90;;;;;;;;;;5067835;28;20119;-63
2023/03/15 00:17:26;;;;;;;19.45;10.40;;;;;;;;;;5068924;28;20450;-62
2023/03/15 00:19:52;;;;;;;24.13;11.05;;;;;;;;;;5052370;28;20025;-65
2023/03/15 00:22:18;;;;;;;17.27;10.10;;;;;;;;;;5070404;28;20055;-65
2023/03/15 00:24:44;;;;;;;16.05;10.10;;;;;;;;;;5070989;28;20071;-66
2023/03/15 00:27:10;;;;;;;15.95;10.00;;;;;;;;;;5052993;28;20036;-66
2023/03/15 00:29:36;;;;;;;18.48;11.40;;;;;;;;;;5071065;28;20108;-65
2023/03/15 00:32:02;;;;;;;16.58;10.60;;;;;;;;;;5070816;28;20165;-66
2023/03/15 00:34:28;;;;;;;19.38;11.98;;;;;;;;;;5070444;28;20040;-64
2023/03/15 00:36:54;;;;;;;16.02;11.88;;;;;;;;;;5053032;28;20514;-66
2023/03/15 00:39:20;;;;;;;18.60;13.45;;;;;;;;;;5053262;28;20021;-64
2023/03/15 00:41:46;;;;;;;20.15;14.85;;;;;;;;;;5054000;28;20020;-65
2023/03/15 00:44:13;;;;;;;19.27;16.75;;;;;;;;;;5071483;28;20020;-65
2023/03/15 00:46:39;;;;;;;23.33;20.83;;;;;;;;;;5054242;28;20120;-65
2023/03/15 00:49:05;;;;;;;28.23;25.80;;;;;;;;;;5053747;28;20028;-66
2023/03/15 00:51:32;;;;;;;29.65;26.95;;;;;;;;;;5071838;28;20032;-65
2023/03/15 00:53:58;;;;;;;32.75;29.77;;;;;;;;;;5071460;28;20040;-64
2023/03/15 00:56:25;;;;;;;32.30;29.45;;;;;;;;;;5053919;28;20028;-64
2023/03/15 00:58:51;;;;;;;33.53;30.63;;;;;;;;;;5053476;28;20024;-64
2023/03/15 01:01:22;;;;;;;32.67;29.80;;;;;;;;;;5071380;28;20021;-63
2023/03/15 01:03:48;;;;;;;32.72;30.02;;;;;;;;;;5071112;28;20020;-62
2023/03/15 01:06:16;;;;;;;32.72;29.75;;;;;;;;;;5071522;28;20078;-65
2023/03/15 01:08:42;;;;;;;35.00;31.50;;;;;;;;;;5071618;28;20086;-64
2023/03/15 01:11:11;;;;;;;35.45;32.38;;;;;;;;;;5053647;28;20115;-65
2023/03/15 01:13:37;;;;;;;35.30;32.13;;;;;;;;;;5071477;28;20111;-64
2023/03/15 01:16:03;;;;;;;35.95;32.90;;;;;;;;;;5054780;28;20025;-62
2023/03/15 01:18:29;;;;;;;35.42;32.38;;;;;;;;;;5057231;28;20377;-64
2023/03/15 01:20:56;;;;;;;35.78;32.88;;;;;;;;;;5074927;28;20060;-63
2023/03/15 01:23:22;;;;;;;36.50;33.70;;;;;;;;;;5074421;28;20040;-64
2023/03/15 01:25:48;;;;;;;36.25;33.47;;;;;;;;;;5075017;28;20051;-59
2023/03/15 01:28:14;;;;;;;35.88;32.85;;;;;;;;;;5057127;28;20092;-63
2023/03/15 01:30:40;;;;;;;36.38;33.30;;;;;;;;;;5056974;28;20052;-63
2023/03/15 01:33:07;;;;;;;37.38;34.45;;;;;;;;;;5074633;28;20432;-63
2023/03/15 01:35:32;;;;;;;36.75;33.70;;;;;;;;;;5056872;28;20109;-61
2023/03/15 01:37:58;;;;;;;38.30;35.30;;;;;;;;;;5074844;28;20033;-63
2023/03/15 01:40:24;;;;;;;37.47;34.67;;;;;;;;;;5074705;28;20480;-63
2023/03/15 01:42:51;;;;;;;38.10;35.15;;;;;;;;;;5074418;28;20024;-62
2023/03/15 01:45:36;;;;;;;36.67;33.72;;;;;;;;;;5056403;28;20033;-61
2023/03/15 01:48:02;;;;;;;37.00;34.20;;;;;;;;;;5074708;28;20508;-59
2023/03/15 01:50:28;;;;;;;35.80;33.00;;;;;;;;;;5056506;28;20036;-63
2023/03/15 01:52:54;;;;;;;36.42;33.42;;;;;;;;;;5056655;28;20028;-63
2023/03/15 01:55:20;;;;;;;37.22;34.30;;;;;;;;;;5056651;28;20024;-62
2023/03/15 01:57:49;;;;;;;37.15;34.30;;;;;;;;;;5074956;28;20021;-63
2023/03/15 02:00:17;;;;;;;35.72;32.75;;;;;;;;;;5056898;28;20039;-63
2023/03/15 02:02:49;;;;;;;36.03;32.67;;;;;;;;;;5056418;28;20024;-62
2023/03/15 02:05:21;;;;;;;36.13;33.22;;;;;;;;;;5056686;28;20067;-63
2023/03/15 02:07:53;;;;;;;37.70;34.45;;;;;;;;;;5074894;28;20025;-65
2023/03/15 02:10:42;;;;;;;35.53;32.60;;;;;;;;;;5056554;28;20032;-63
2023/03/15 02:13:08;;;;;;;33.30;30.27;;;;;;;;;;5074090;28;20544;-58
2023/03/15 02:15:34;;;;;;;33.30;30.30;;;;;;;;;;5056463;28;20108;-63
2023/03/15 02:18:00;;;;;;;32.55;29.60;;;;;;;;;;5074545;28;20025;-62
2023/03/15 02:20:26;;;;;;;34.20;31.15;;;;;;;;;;5056321;28;20098;-59
2023/03/15 02:23:04;;;;;;;33.90;30.52;;;;;;;;;;5056124;28;20127;-62
2023/03/15 02:25:30;;;;;;;33.40;30.30;;;;;;;;;;5073754;28;20032;-62
2023/03/15 02:27:59;;;;;;;32.97;29.83;;;;;;;;;;5073039;28;20046;-62
2023/03/15 02:30:26;;;;;;;33.40;30.17;;;;;;;;;;5073825;28;20024;-63
2023/03/15 02:32:52;;;;;;;32.20;29.10;;;;;;;;;;5073232;28;20035;-63
2023/03/15 02:35:25;;;;;;;30.38;27.58;;;;;;;;;;5078296;28;20389;-63
2023/03/15 02:37:51;;;;;;;31.15;28.25;;;;;;;;;;5072147;28;20032;-63
2023/03/15 02:40:19;;;;;;;32.60;29.38;;;;;;;;;;5073623;28;20024;-63
2023/03/15 02:42:46;;;;;;;32.75;29.55;;;;;;;;;;5073440;28;20477;-61
2023/03/15 02:45:12;;;;;;;31.50;28.52;;;;;;;;;;5073101;28;20109;-63
2023/03/15 02:47:39;;;;;;;31.00;27.90;;;;;;;;;;5073455;28;20029;-62
2023/03/15 02:50:07;;;;;;;30.77;27.85;;;;;;;;;;5073418;28;20037;-63
2023/03/15 02:52:33;;;;;;;33.30;29.98;;;;;;;;;;5073465;28;20024;-63
2023/03/15 02:55:00;;;;;;;32.88;29.73;;;;;;;;;;5072957;28;20031;-63
2023/03/15 02:57:27;;;;;;;32.03;28.80;;;;;;;;;;5073168;28;20362;-64
2023/03/15 02:59:53;;;;;;;37.55;33.75;;;;;;;;;;5073164;28;20445;-63
2023/03/15 03:02:20;;;;;;;35.42;32.08;;;;;;;;;;5073093;28;20024;-61
2023/03/15 03:04:46;;;;;;;35.75;32.40;;;;;;;;;;5055200;28;20354;-63
2023/03/15 03:07:12;;;;;;;35.28;31.98;;;;;;;;;;5073265;28;20115;-61
2023/03/15 03:09:38;;;;;;;34.97;31.75;;;;;;;;;;5055162;28;20027;-63
2023/03/15 03:12:04;;;;;;;35.45;32.05;;;;;;;;;;5072916;28;20078;-62
2023/03/15 03:14:30;;;;;;;35.72;32.15;;;;;;;;;;5054864;28;20507;-62
2023/03/15 03:16:56;;;;;;;34.35;30.88;;;;;;;;;;5073257;28;20025;-61
2023/03/15 03:19:24;;;;;;;35.35;31.83;;;;;;;;;;5073150;28;20028;-60
2023/03/15 03:21:51;;;;;;;32.80;29.73;;;;;;;;;;5055131;28;20028;-62
2023/03/15 03:24:17;;;;;;;33.95;30.85;;;;;;;;;;5072230;28;20040;-63
2023/03/15 03:26:44;;;;;;;36.03;32.72;;;;;;;;;;5054840;28;20028;-64
2023/03/15 03:29:11;;;;;;;35.22;31.85;;;;;;;;;;5072645;28;20028;-62
2023/03/15 03:31:37;;;;;;;34.15;30.95;;;;;;;;;;5072418;28;20481;-69
2023/03/15 03:34:03;;;;;;;35.08;31.67;;;;;;;;;;5072448;28;20070;-63
2023/03/15 03:36:29;;;;;;;35.55;32.15;;;;;;;;;;5072585;28;20385;-63
2023/03/15 03:38:56;;;;;;;34.63;31.23;;;;;;;;;;5071964;28;20017;-62
2023/03/15 03:41:22;;;;;;;34.88;31.55;;;;;;;;;;5072298;28;20028;-61
2023/03/15 03:43:48;;;;;;;37.22;33.45;;;;;;;;;;5054332;28;20476;-63
2023/03/15 03:46:14;;;;;;;34.72;31.33;;;;;;;;;;5072547;28;20063;-63
2023/03/15 03:48:40;;;;;;;36.08;32.47;;;;;;;;;;5072500;28;20052;-63
2023/03/15 03:51:06;;;;;;;35.85;32.47;;;;;;;;;;5054335;28;20507;-64
2023/03/15 03:53:32;;;;;;;37.28;33.40;;;;;;;;;;5054025;28;20029;-62
2023/03/15 03:55:58;;;;;;;35.03;31.70;;;;;;;;;;5072198;28;20016;-63
2023/03/15 03:58:24;;;;;;;34.20;31.13;;;;;;;;;;5054320;28;20027;-63
2023/03/15 04:00:54;;;;;;;34.53;31.42;;;;;;;;;;5072247;28;20020;-63
2023/03/15 04:03:25;;;;;;;34.60;31.38;;;;;;;;;;5071960;28;20021;-63
2023/03/15 04:05:51;;;;;;;34.80;31.60;;;;;;;;;;5072246;28;20032;-64
2023/03/15 04:08:17;;;;;;;34.95;31.58;;;;;;;;;;5072087;28;20454;-63
2023/03/15 04:10:43;;;;;;;33.55;30.55;;;;;;;;;;5070760;28;20115;-62
2023/03/15 04:13:09;;;;;;;35.95;32.17;;;;;;;;;;5071827;28;20150;-64
2023/03/15 04:15:35;;;;;;;33.55;30.55;;;;;;;;;;5071963;28;20058;-65
2023/03/15 04:18:04;;;;;;;35.38;32.05;;;;;;;;;;5072054;28;20029;-62
2023/03/15 04:20:33;;;;;;;33.25;30.23;;;;;;;;;;5070753;28;20035;-63
2023/03/15 04:23:00;;;;;;;35.10;31.98;;;;;;;;;;5071901;28;20025;-63
2023/03/15 04:25:27;;;;;;;34.10;30.73;;;;;;;;;;5070607;28;20025;-64
2023/03/15 04:28:01;;;;;;;33.75;30.65;;;;;;;;;;5071950;28;20025;-66
2023/03/15 04:30:28;;;;;;;33.60;30.40;;;;;;;;;;5071919;28;20526;-63
2023/03/15 04:32:57;;;;;;;34.33;31.00;;;;;;;;;;5071678;28;20389;-63
2023/03/15 04:35:27;;;;;;;33.53;30.38;;;;;;;;;;5071671;28;20439;-63
2023/03/15 04:37:53;;;;;;;34.55;31.15;;;;;;;;;;5070623;28;20566;-62
2023/03/15 04:40:22;;;;;;;34.60;31.25;;;;;;;;;;5071306;28;20028;-63
2023/03/15 04:42:49;;;;;;;33.25;30.15;;;;;;;;;;5071941;28;20032;-61
2023/03/15 04:45:15;;;;;;;34.20;31.00;;;;;;;;;;5071322;28;20048;-62
2023/03/15 04:47:42;;;;;;;34.03;30.73;;;;;;;;;;5074478;28;20035;-64
2023/03/15 04:50:09;;;;;;;34.03;30.70;;;;;;;;;;5073794;28;20035;-63
2023/03/15 04:52:35;;;;;;;35.53;32.03;;;;;;;;;;5075914;28;20290;-63
2023/03/15 04:55:01;;;;;;;34.50;31.17;;;;;;;;;;5075913;28;20081;-64
2023/03/15 04:57:27;;;;;;;34.40;30.85;;;;;;;;;;5075684;28;20543;-61
2023/03/15 04:59:53;;;;;;;35.63;32.28;;;;;;;;;;5081160;28;20107;-63
2023/03/15 05:02:19;;;;;;;35.20;32.00;;;;;;;;;;5075819;28;20388;-65
2023/03/15 05:04:45;;;;;;;35.55;32.30;;;;;;;;;;5075431;28;20020;-67
2023/03/15 05:07:11;;;;;;;35.00;31.67;;;;;;;;;;5057347;28;20024;-63
2023/03/15 05:09:37;;;;;;;34.63;31.17;;;;;;;;;;5075381;28;20027;-64
2023/03/15 05:12:06;;;;;;;33.45;30.25;;;;;;;;;;5066597;28;20020;-63
2023/03/15 05:14:33;;;;;;;33.47;30.40;;;;;;;;;;5075332;28;20027;-62
2023/03/15 05:17:01;;;;;;;35.38;32.17;;;;;;;;;;5075714;28;20028;-63
2023/03/15 05:19:27;;;;;;;34.95;31.85;;;;;;;;;;5075327;28;20062;-64
2023/03/15 05:21:53;;;;;;;34.20;31.05;;;;;;;;;;5075089;28;20411;-64
2023/03/15 05:24:20;;;;;;;34.95;31.75;;;;;;;;;;5112228;22;20107;-66
2023/03/15 05:26:46;;;;;;;35.38;32.25;;;;;;;;;;5114300;28;20020;-65
2023/03/15 05:29:12;;;;;;;36.53;32.95;;;;;;;;;;5112948;28;20031;-63
2023/03/15 05:31:38;;;;;;;35.25;32.15;;;;;;;;;;5114541;28;20687;-64
2023/03/15 05:34:05;;;;;;;36.15;32.53;;;;;;;;;;5114504;28;20070;-64
2023/03/15 05:36:31;;;;;;;34.78;31.55;;;;;;;;;;5114363;28;20023;-65
2023/03/15 05:38:57;;;;;;;36.10;32.78;;;;;;;;;;5122968;27;20494;-66
2023/03/15 05:41:23;;;;;;;34.92;31.55;;;;;;;;;;5129712;27;20451;-64
2023/03/15 05:43:50;;;;;;;35.40;31.23;;;;;;;;;;5134328;27;20039;-66
2023/03/15 05:46:16;;;;;;;34.83;31.67;;;;;;;;;;5134566;27;20023;-62
2023/03/15 05:48:42;;;;;;;33.78;30.67;;;;;;;;;;5134556;27;20660;-65
2023/03/15 05:51:09;;;;;;;34.28;31.38;;;;;;;;;;5134526;27;20027;-65
2023/03/15 05:53:35;;;;;;;33.80;30.52;;;;;;;;;;5114502;27;20063;-64
2023/03/15 05:56:01;;;;;;;34.33;31.20;;;;;;;;;;5128451;27;20040;-64
2023/03/15 05:58:27;;;;;;;34.42;31.27;;;;;;;;;;5093043;28;20484;-66
2023/03/15 06:00:53;;;;;;;32.95;29.70;;;;;;;;;;5074870;28;20035;-64
2023/03/15 06:03:19;;;;;;;33.22;30.15;;;;;;;;;;5091696;28;20028;-66
2023/03/15 06:05:45;;;;;;;33.13;29.90;;;;;;;;;;5093204;28;20040;-66
2023/03/15 06:08:11;;;;;;;32.92;29.95;;;;;;;;;;5093137;28;20032;-65
2023/03/15 06:10:37;;;;;;;33.35;29.88;;;;;;;;;;5094874;28;20106;-66
2023/03/15 06:13:03;;;;;;;33.40;30.38;;;;;;;;;;5113316;28;20102;-65
2023/03/15 06:15:29;;;;;;;32.95;29.75;;;;;;;;;;5113104;28;20038;-65
2023/03/15 06:17:55;;;;;;;34.42;31.05;;;;;;;;;;5094962;28;20106;-65
2023/03/15 06:20:21;;;;;;;32.50;29.45;;;;;;;;;;5094915;28;20027;-66
2023/03/15 06:22:47;;;;;;;34.30;30.50;;;;;;;;;;5095140;28;20028;-65
2023/03/15 06:25:13;;;;;;;33.53;30.17;;;;;;;;;;5113000;28;20031;-64
2023/03/15 06:27:39;;;;;;;35.28;31.42;;;;;;;;;;5080658;28;20096;-64
2023/03/15 06:30:05;;;;;;;33.53;30.13;;;;;;;;;;5093789;28;20032;-64
2023/03/15 06:32:31;;;;;;;33.40;30.40;;;;;;;;;;5093900;28;20032;-65
2023/03/15 06:34:57;;;;;;;34.00;30.90;;;;;;;;;;5093601;28;20024;-66
2023/03/15 06:37:23;;;;;;;33.50;30.25;;;;;;;;;;5095126;28;20511;-67
2023/03/15 06:39:50;;;;;;;33.10;30.00;;;;;;;;;;5093604;28;20511;-63
2023/03/15 06:42:16;;;;;;;34.70;31.10;;;;;;;;;;5094209;28;20028;-66
2023/03/15 06:44:42;;;;;;;34.03;30.77;;;;;;;;;;5093954;28;20028;-65
2023/03/15 06:47:09;;;;;;;33.63;30.23;;;;;;;;;;5075880;28;20032;-63
2023/03/15 06:49:35;;;;;;;34.10;30.50;;;;;;;;;;5095137;28;20066;-64
2023/03/15 06:52:01;;;;;;;35.67;31.90;;;;;;;;;;5093713;28;20024;-64
2023/03/15 06:54:27;;;;;;;31.90;29.00;;;;;;;;;;5107184;28;20031;-63
2023/03/15 06:56:53;;;;;;;32.25;29.27;;;;;;;;;;5113326;28;20091;-64
2023/03/15 06:59:19;;;;;;;32.40;29.20;;;;;;;;;;5112938;28;20024;-64
2023/03/15 07:01:45;;;;;;;32.75;29.75;;;;;;;;;;5112646;28;20028;-64
2023/03/15 07:04:11;;;;;;;33.50;30.17;;;;;;;;;;5094402;28;20030;-65
2023/03/15 07:06:37;;;;;;;33.20;30.10;;;;;;;;;;5113216;28;20488;-65
2023/03/15 07:09:04;;;;;;;32.85;29.77;;;;;;;;;;5112858;28;20395;-66
2023/03/15 07:11:30;;;;;;;33.08;29.88;;;;;;;;;;5113303;28;20019;-67
2023/03/15 07:13:57;;;;;;;33.30;30.10;;;;;;;;;;5113244;28;20140;-65
2023/03/15 07:16:23;;;;;;;32.40;29.40;;;;;;;;;;5112585;28;20071;-66
2023/03/15 07:18:49;;;;;;;33.30;30.05;;;;;;;;;;5112206;28;20419;-66
2023/03/15 07:21:15;;;;;;;33.75;30.45;;;;;;;;;;5112261;28;20019;-66
2023/03/15 07:23:41;;;;;;;33.95;30.75;;;;;;;;;;5113000;28;20126;-66
2023/03/15 07:26:08;;;;;;;32.78;29.60;;;;;;;;;;5112651;28;20509;-66
2023/03/15 07:28:34;;;;;;;32.63;29.60;;;;;;;;;;5098558;28;20146;-64
2023/03/15 07:31:01;;;;;;;33.63;30.27;;;;;;;;;;5091432;28;20031;-64
2023/03/15 07:33:27;;;;;;;33.15;29.77;;;;;;;;;;5091617;28;20052;-65
2023/03/15 07:35:54;;;;;;;33.15;29.80;;;;;;;;;;5073461;28;20012;-63
2023/03/15 07:38:21;;;;;;;32.75;29.65;;;;;;;;;;5091869;28;20536;-67
2023/03/15 07:40:47;;;;;;;30.73;28.05;;;;;;;;;;5091671;28;20388;-64
2023/03/15 07:43:13;;;;;;;31.25;28.10;;;;;;;;;;5091530;28;20020;-66
2023/03/15 07:45:39;;;;;;;30.95;27.92;;;;;;;;;;5073079;28;20050;-63
2023/03/15 07:48:05;;;;;;;30.35;27.10;;;;;;;;;;5091636;28;20017;-65
2023/03/15 07:50:31;;;;;;;31.65;28.40;;;;;;;;;;5072960;28;20028;-63
2023/03/15 07:52:57;;;;;;;31.70;26.80;;;;;;;;;;5091324;28;20099;-65
2023/03/15 07:55:24;;;;;;;29.08;26.08;;;;;;;;;;5111266;28;20472;-66
2023/03/15 07:57:50;;;;;;;30.10;26.98;;;;;;;;;;5094052;28;20364;-64
2023/03/15 08:00:17;;;;;;;28.67;25.60;;;;;;;;;;5112388;28;20463;-64
2023/03/15 08:02:43;;;;;;;29.48;25.00;;;;;;;;;;5093959;28;20646;-64
2023/03/15 08:05:09;;;;;;;27.85;25.15;;;;;;;;;;5111047;28;20044;-65
2023/03/15 08:07:35;;;;;;;28.17;25.38;;;;;;;;;;5093382;28;20480;-66
2023/03/15 08:10:02;;;;;;;29.17;26.23;;;;;;;;;;5112015;28;20028;-66
2023/03/15 08:12:29;;;;;;;28.52;25.67;;;;;;;;;;5093329;28;20028;-65
2023/03/15 08:14:55;;;;;;;30.10;25.58;;;;;;;;;;5110782;28;20035;-66
2023/03/15 08:17:22;;;;;;;26.85;23.92;;;;;;;;;;5111385;28;20098;-65
2023/03/15 08:19:48;;;;;;;29.67;25.08;;;;;;;;;;5111322;28;20072;-65
2023/03/15 08:22:15;;;;;;;25.88;22.98;;;;;;;;;;5111367;28;20092;-64
2023/03/15 08:24:41;;;;;;;25.17;22.58;;;;;;;;;;5092775;28;20706;-66
2023/03/15 08:27:07;;;;;;;26.58;21.35;;;;;;;;;;5092225;28;20144;-66
2023/03/15 08:29:33;;;;;;;23.15;20.75;;;;;;;;;;5093193;28;20035;-64
2023/03/15 08:31:59;;;;;;;22.85;20.27;;;;;;;;;;5111323;28;20046;-67
2023/03/15 08:34:25;;;;;;;26.75;20.75;;;;;;;;;;5110348;28;20487;-66
2023/03/15 08:36:51;;;;;;;26.60;19.52;;;;;;;;;;5110711;28;20089;-62
2023/03/15 08:39:17;;;;;;;24.13;18.60;;;;;;;;;;5111054;28;20493;-63
2023/03/15 08:41:44;;;;;;;23.20;18.05;;;;;;;;;;5110974;28;20418;-64
2023/03/15 08:44:10;;;;;;;21.75;17.10;;;;;;;;;;5092176;28;20028;-63
2023/03/15 08:46:36;;;;;;;20.55;18.10;;;;;;;;;;5092345;28;20035;-61
2023/03/15 08:49:02;;;;;;;21.42;18.70;;;;;;;;;;5091998;28;20024;-61
2023/03/15 08:51:29;;;;;;;22.08;17.77;;;;;;;;;;5091931;28;20023;-61
2023/03/15 08:53:56;;;;;;;24.00;17.10;;;;;;;;;;5091509;28;20043;-59
2023/03/15 08:56:22;;;;;;;20.42;16.40;;;;;;;;;;5110023;28;20024;-60
2023/03/15 08:58:49;;;;;;;25.17;16.95;;;;;;;;;;5110573;28;20081;-63
2023/03/15 09:01:15;;;;;;;20.05;16.42;;;;;;;;;;5111117;28;20035;-59
2023/03/15 09:03:41;;;;;;;26.88;16.20;;;;;;;;;;5110980;28;20085;-61
2023/03/15 09:06:08;;;;;;;20.23;14.38;;;;;;;;;;5110222;28;20494;-60
2023/03/15 09:08:34;;;;;;;19.48;14.75;;;;;;;;;;5111285;28;20103;-61
2023/03/15 09:11:00;;;;;;;24.67;14.68;;;;;;;;;;5114941;28;20020;-65
2023/03/15 09:13:27;;;;;;;26.58;15.70;;;;;;;;;;5096550;28;20111;-62
2023/03/15 09:15:53;;;;;;;24.67;15.18;;;;;;;;;;5115392;28;20082;-63
2023/03/15 09:18:20;;;;;;;27.60;16.60;;;;;;;;;;5091562;28;20020;-66
2023/03/15 09:20:46;;;;;;;21.88;14.57;;;;;;;;;;5097245;28;20240;-64
2023/03/15 09:23:12;;;;;;;23.23;14.63;;;;;;;;;;5093703;28;20700;-64
2023/03/15 09:25:38;;;;;;;24.52;15.35;;;;;;;;;;5094128;28;20078;-70
2023/03/15 09:28:05;;;;;;;23.75;15.27;;;;;;;;;;5075961;28;20081;-66
2023/03/15 09:30:31;;;;;;;20.17;15.07;;;;;;;;;;5095046;28;20504;-64
2023/03/15 09:32:57;;;;;;;20.67;14.80;;;;;;;;;;5089259;28;20102;-64
2023/03/15 09:35:23;;;;;;;18.27;13.30;;;;;;;;;;5103945;28;20379;-64
2023/03/15 09:37:49;;;;;;;20.75;13.90;;;;;;;;;;5124222;27;20088;-65
2023/03/15 09:40:24;;;;;;;22.92;13.18;;;;;;;;;;5115955;27;20027;-62
2023/03/15 09:43:00;;;;;;;22.25;14.68;;;;;;;;;;5116450;27;20076;-64
2023/03/15 09:45:31;;;;;;;20.33;12.48;;;;;;;;;;5116931;27;20047;-64
2023/03/15 09:48:04;;;;;;;23.42;13.52;;;;;;;;;;5135501;27;20023;-66
2023/03/15 09:50:36;;;;;;;22.45;13.95;;;;;;;;;;5136075;27;20395;-63
2023/03/15 09:53:04;;;;;;;19.85;13.85;;;;;;;;;;5135953;27;20477;-61
2023/03/15 09:55:30;;;;;;;21.98;12.43;;;;;;;;;;5095458;28;20054;-64
2023/03/15 09:58:02;;;;;;;19.13;12.02;;;;;;;;;;5093699;28;20020;-64
2023/03/15 10:00:47;;;;;;;18.38;12.60;;;;;;;;;;5092983;28;20020;-63
2023/03/15 10:03:19;;;;;;;19.35;12.82;;;;;;;;;;5093291;28;20153;-63
2023/03/15 10:05:47;;;;;;;19.92;12.30;;;;;;;;;;5093234;28;20024;-62
2023/03/15 10:08:16;;;;;;;18.85;12.13;;;;;;;;;;5093758;28;20052;-61
2023/03/15 10:10:51;;;;;;;19.50;12.85;;;;;;;;;;5094070;28;20526;-65
2023/03/15 10:13:26;;;;;;;20.63;12.80;;;;;;;;;;5094319;28;20024;-63
2023/03/15 10:16:15;;;;;;;18.88;11.98;;;;;;;;;;5076178;28;20081;-64
2023/03/15 10:18:41;;;;;;;20.75;12.32;;;;;;;;;;5094296;28;20028;-62
2023/03/15 10:21:16;;;;;;;20.02;12.35;;;;;;;;;;5093974;28;20061;-64
2023/03/15 10:23:53;;;;;;;20.73;12.07;;;;;;;;;;5092956;28;20433;-63
2023/03/15 10:26:22;;;;;;;18.52;12.38;;;;;;;;;;5092431;28;20403;-65
2023/03/15 10:28:48;;;;;;;18.20;11.88;;;;;;;;;;5092358;28;20028;-65
2023/03/15 10:31:17;;;;;;;19.80;10.70;;;;;;;;;;5091987;28;20024;-62
2023/03/15 10:33:44;;;;;;;21.30;11.05;;;;;;;;;;5073724;28;20434;-64
2023/03/15 10:36:18;;;;;;;19.20;11.30;;;;;;;;;;5092207;28;20035;-64
2023/03/15 10:38:45;;;;;;;18.08;12.48;;;;;;;;;;5092216;28;20081;-64
2023/03/15 10:41:13;;;;;;;31.98;12.90;;;;;;;;;;5074088;28;20045;-64
2023/03/15 10:43:40;;;;;;;16.90;11.55;;;;;;;;;;5091818;28;20065;-62
2023/03/15 10:46:20;;;;;;;17.67;12.10;;;;;;;;;;5091554;28;20108;-64
2023/03/15 10:48:56;;;;;;;17.48;11.90;;;;;;;;;;5073015;28;20029;-65
2023/03/15 10:51:30;;;;;;;21.83;11.75;;;;;;;;;;5091637;28;20024;-66
2023/03/15 10:54:01;;;;;;;18.90;11.98;;;;;;;;;;5098036;28;20061;-66
2023/03/15 10:56:30;;;;;;;17.40;11.80;;;;;;;;;;5093847;27;20106;-65
2023/03/15 10:58:57;;;;;;;17.15;11.77;;;;;;;;;;5110962;27;20023;-65
2023/03/15 11:01:23;;;;;;;19.77;11.32;;;;;;;;;;5117427;27;20028;-63
2023/03/15 11:04:00;;;;;;;16.77;10.70;;;;;;;;;;5120660;27;20102;-65
2023/03/15 11:06:27;;;;;;;18.80;11.07;;;;;;;;;;5107750;27;20024;-64
2023/03/15 11:08:54;;;;;;;17.20;11.82;;;;;;;;;;5123756;27;20023;-62
2023/03/15 11:11:20;;;;;;;17.65;11.43;;;;;;;;;;5121794;27;20024;-66
2023/03/15 11:13:54;;;;;;;16.65;11.20;;;;;;;;;;5116741;27;20123;-64
2023/03/15 11:16:21;;;;;;;20.23;11.20;;;;;;;;;;5108954;27;20023;-67
2023/03/15 11:18:52;;;;;;;16.92;11.07;;;;;;;;;;5119680;27;20070;-63
2023/03/15 11:21:19;;;;;;;19.73;11.10;;;;;;;;;;5116282;27;20065;-61
2023/03/15 11:26:28;;;;;;;16.20;11.38;;;;;;;;;;5028436;28;20430;-63
2023/03/15 11:29:03;;;;;;;23.77;11.65;;;;;;;;;;5027875;28;20064;-61
2023/03/15 11:31:30;;;;;;;17.88;11.40;;;;;;;;;;5013031;28;20045;-63
2023/03/15 11:33:57;;;;;;;17.77;10.68;;;;;;;;;;5018721;28;20030;-63
2023/03/15 11:36:26;;;;;;;15.07;10.90;;;;;;;;;;5013210;28;20025;-63
2023/03/15 11:38:52;;;;;;;14.45;10.23;;;;;;;;;;5013876;28;20371;-62
2023/03/15 11:41:40;;;;;;;14.52;10.70;;;;;;;;;;5029941;28;20125;-59
2023/03/15 11:44:21;;;;;;;17.23;11.38;;;;;;;;;;5012289;28;20030;-60
2023/03/15 11:46:49;;;;;;;16.42;11.32;;;;;;;;;;5010878;28;20509;-63
2023/03/15 11:49:18;;;;;;;19.30;11.65;;;;;;;;;;5012577;28;20030;-60
2023/03/15 11:51:45;;;;;;;17.50;11.77;;;;;;;;;;5011999;28;20037;-63
2023/03/15 11:54:13;;;;;;;15.75;11.35;;;;;;;;;;5011721;28;20355;-56
2023/03/15 11:56:48;;;;;;;18.38;11.45;;;;;;;;;;5012366;28;20022;-62
2023/03/15 11:59:18;;;;;;;18.35;12.73;;;;;;;;;;5012193;28;20049;-62
2023/03/15 12:01:49;;;;;;;17.48;11.63;;;;;;;;;;5011569;28;20022;-62
2023/03/15 12:04:24;;;;;;;18.27;11.50;;;;;;;;;;5012139;28;20498;-62
2023/03/15 12:06:54;;;;;;;17.77;11.82;;;;;;;;;;5013131;28;20105;-62
2023/03/15 12:09:32;;;;;;;19.00;12.23;;;;;;;;;;5010843;28;20057;-62
2023/03/15 12:11:59;;;;;;;16.95;11.90;;;;;;;;;;5013037;28;20497;-64
2023/03/15 12:14:28;;;;;;;16.67;11.65;;;;;;;;;;5011899;28;20026;-60
2023/03/15 12:17:14;;;;;;;19.00;11.73;;;;;;;;;;5010689;28;20030;-63
2023/03/15 12:19:40;;;;;;;20.63;12.23;;;;;;;;;;5011779;28;20032;-62
2023/03/15 12:22:13;;;;;;;17.30;12.32;;;;;;;;;;5011721;28;20471;-62
2023/03/15 12:24:39;;;;;;;18.10;12.40;;;;;;;;;;5016576;28;20461;-62
2023/03/15 12:27:16;;;;;;;21.42;12.18;;;;;;;;;;5031331;28;20036;-65
2023/03/15 12:29:44;;;;;;;18.02;12.18;;;;;;;;;;5031528;28;20359;-61
2023/03/15 12:32:19;;;;;;;18.67;13.05;;;;;;;;;;5031491;28;20117;-62
2023/03/15 12:34:49;;;;;;;17.23;12.52;;;;;;;;;;5031456;28;20116;-62
2023/03/15 12:37:36;;;;;;;16.58;12.50;;;;;;;;;;5031638;28;20359;-62
2023/03/15 12:40:03;;;;;;;19.30;13.10;;;;;;;;;;5024323;28;20473;-63
2023/03/15 12:42:32;;;;;;;18.90;12.65;;;;;;;;;;5013680;28;20032;-61
2023/03/15 12:45:16;;;;;;;19.35;12.98;;;;;;;;;;5031264;28;20032;-63
2023/03/15 12:47:45;;;;;;;18.08;12.40;;;;;;;;;;5013489;28;20056;-62
2023/03/15 12:50:30;;;;;;;16.23;11.70;;;;;;;;;;5013739;28;20052;-62
2023/03/15 12:52:59;;;;;;;16.50;12.43;;;;;;;;;;5013889;28;20018;-59
2023/03/15 12:55:27;;;;;;;18.35;13.13;;;;;;;;;;5031421;28;20026;-62
2023/03/15 12:57:56;;;;;;;16.88;12.60;;;;;;;;;;5031705;28;20048;-61
2023/03/15 13:00:26;;;;;;;18.25;13.00;;;;;;;;;;5031416;28;20029;-62
2023/03/15 13:03:02;;;;;;;17.20;12.43;;;;;;;;;;5031265;28;20470;-63
2023/03/15 13:05:32;;;;;;;16.70;12.70;;;;;;;;;;5031064;28;20025;-63
2023/03/15 13:08:09;;;;;;;18.20;12.75;;;;;;;;;;5031460;28;20028;-62
2023/03/15 13:10:39;;;;;;;16.77;13.02;;;;;;;;;;5013146;28;20144;-59
2023/03/15 13:13:05;;;;;;;15.90;12.05;;;;;;;;;;5033688;28;20103;-61
2023/03/15 13:15:35;;;;;;;17.02;12.52;;;;;;;;;;5035052;28;20102;-63
2023/03/15 13:18:25;;;;;;;19.05;13.25;;;;;;;;;;5034998;28;20296;-64
2023/03/15 13:20:51;;;;;;;18.95;12.25;;;;;;;;;;5012126;28;20049;-62
2023/03/15 13:23:17;;;;;;;18.00;12.45;;;;;;;;;;5034308;28;20025;-61
2023/03/15 13:26:02;;;;;;;17.67;12.77;;;;;;;;;;5034611;28;20128;-58
2023/03/15 13:28:36;;;;;;;19.15;12.95;;;;;;;;;;5034806;28;20460;-64
2023/03/15 13:31:13;;;;;;;19.70;12.88;;;;;;;;;;5017013;28;20056;-61
2023/03/15 13:33:39;;;;;;;16.23;12.85;;;;;;;;;;5034406;28;20490;-63
2023/03/15 13:36:11;;;;;;;16.95;12.80;;;;;;;;;;5034944;28;20029;-63
2023/03/15 13:38:37;;;;;;;18.13;12.95;;;;;;;;;;5035489;28;20036;-62
2023/03/15 13:41:05;;;;;;;17.70;12.88;;;;;;;;;;5034850;28;20033;-65
2023/03/15 13:43:36;;;;;;;17.10;12.40;;;;;;;;;;5016994;28;20371;-57
2023/03/15 13:46:02;;;;;;;16.50;12.55;;;;;;;;;;5036260;28;20298;-62
2023/03/15 13:48:30;;;;;;;16.08;12.20;;;;;;;;;;5036861;28;20116;-63
2023/03/15 13:50:59;;;;;;;16.05;11.57;;;;;;;;;;5032937;28;20026;-61
2023/03/15 13:53:27;;;;;;;15.75;11.80;;;;;;;;;;5014375;28;20021;-58
2023/03/15 13:55:53;;;;;;;17.63;11.60;;;;;;;;;;5021240;28;20412;-63
2023/03/15 13:58:22;;;;;;;18.58;11.85;;;;;;;;;;4683453;28;10000317;-63
2023/03/15 14:00:48;;;;;;;17.88;12.55;;;;;;;;;;5029906;28;20025;-63
2023/03/15 14:03:21;;;;;;;17.38;11.77;;;;;;;;;;5030643;28;20133;-60
2023/03/15 14:05:49;;;;;;;17.92;11.65;;;;;;;;;;5028809;28;20445;-63
2023/03/15 14:08:27;;;;;;;19.00;11.60;;;;;;;;;;5020358;28;20076;-65
2023/03/15 14:10:57;;;;;;;15.63;10.98;;;;;;;;;;5019537;28;20484;-63
2023/03/15 14:13:26;;;;;;;16.65;11.55;;;;;;;;;;5004083;28;20063;-63
2023/03/15 14:15:56;;;;;;;18.27;11.98;;;;;;;;;;5031085;28;20034;-64
2023/03/15 14:18:24;;;;;;;18.05;11.98;;;;;;;;;;5031255;28;20087;-62
2023/03/15 14:20:57;;;;;;;17.08;12.40;;;;;;;;;;5031031;28;20513;-65
2023/03/15 14:23:24;;;;;;;15.70;11.80;;;;;;;;;;5006805;28;20048;-63